sensor_id;sensor_type;location;lat;lon;timestamp;temperature;humidity
22321;DHT22;11328;53.928;18.522;2023-05-02T00:02:24;12.10;91.20
22321;DHT22;11328;53.928;18.522;2023-05-02T00:04:51;12.10;91.30
22321;DHT22;11328;53.928;18.522;2023-05-02T00:07:18;12.00;91.30
22321;DHT22;11328;53.928;18.522;2023-05-02T00:09:46;12.00;91.30
22321;DHT22;11328;53.928;18.522;2023-05-02T00:12:13;12.00;91.30
22321;DHT22;11328;53.928;18.522;2023-05-02T00:14:39;11.90;91.30
22321;DHT22;11328;53.928;18.522;2023-05-02T00:17:06;11.90;91.50
22321;DHT22;11328;53.928;18.522;2023-05-02T00:19:39;11.90;91.60
22321;DHT22;11328;53.928;18.522;2023-05-02T00:22:06;11.90;91.60
22321;DHT22;11328;53.928;18.522;2023-05-02T00:24:33;11.90;91.70
22321;DHT22;11328;53.928;18.522;2023-05-02T00:27:00;11.90;91.70
22321;DHT22;11328;53.928;18.522;2023-05-02T00:29:27;11.90;91.70
22321;DHT22;11328;53.928;18.522;2023-05-02T00:31:54;11.90;91.90
22321;DHT22;11328;53.928;18.522;2023-05-02T00:34:31;11.90;92.20
22321;DHT22;11328;53.928;18.522;2023-05-02T00:36:58;11.80;92.10
22321;DHT22;11328;53.928;18.522;2023-05-02T00:39:25;11.80;91.90
22321;DHT22;11328;53.928;18.522;2023-05-02T00:41:58;11.70;91.90
22321;DHT22;11328;53.928;18.522;2023-05-02T00:44:26;11.60;92.10
22321;DHT22;11328;53.928;18.522;2023-05-02T00:46:54;11.60;92.20
22321;DHT22;11328;53.928;18.522;2023-05-02T00:49:22;11.50;92.30
22321;DHT22;11328;53.928;18.522;2023-05-02T00:51:50;11.50;92.20
22321;DHT22;11328;53.928;18.522;2023-05-02T00:54:17;11.60;92.30
22321;DHT22;11328;53.928;18.522;2023-05-02T00:56:44;11.60;92.20
22321;DHT22;11328;53.928;18.522;2023-05-02T00:59:12;11.60;92.30
22321;DHT22;11328;53.928;18.522;2023-05-02T01:02:04;11.60;92.30
22321;DHT22;11328;53.928;18.522;2023-05-02T01:07:49;11.50;92.60
22321;DHT22;11328;53.928;18.522;2023-05-02T01:10:30;11.50;92.70
22321;DHT22;11328;53.928;18.522;2023-05-02T01:13:16;11.40;92.90
22321;DHT22;11328;53.928;18.522;2023-05-02T01:15:43;11.30;93.00
22321;DHT22;11328;53.928;18.522;2023-05-02T01:18:14;11.30;93.20
22321;DHT22;11328;53.928;18.522;2023-05-02T01:20:45;11.20;93.30
22321;DHT22;11328;53.928;18.522;2023-05-02T01:26:31;11.30;93.30
22321;DHT22;11328;53.928;18.522;2023-05-02T01:29:07;11.20;93.50
22321;DHT22;11328;53.928;18.522;2023-05-02T01:31:41;11.20;93.50
22321;DHT22;11328;53.928;18.522;2023-05-02T01:34:11;11.20;93.60
22321;DHT22;11328;53.928;18.522;2023-05-02T01:36:43;11.20;93.60
22321;DHT22;11328;53.928;18.522;2023-05-02T01:39:17;11.20;93.50
22321;DHT22;11328;53.928;18.522;2023-05-02T01:41:48;11.20;93.50
22321;DHT22;11328;53.928;18.522;2023-05-02T01:44:19;11.20;93.70
22321;DHT22;11328;53.928;18.522;2023-05-02T01:46:49;11.20;93.90
22321;DHT22;11328;53.928;18.522;2023-05-02T01:49:18;11.20;93.90
22321;DHT22;11328;53.928;18.522;2023-05-02T01:51:48;11.20;94.00
22321;DHT22;11328;53.928;18.522;2023-05-02T01:54:17;11.20;94.00
22321;DHT22;11328;53.928;18.522;2023-05-02T01:56:47;11.10;94.00
22321;DHT22;11328;53.928;18.522;2023-05-02T01:59:18;11.20;94.10
22321;DHT22;11328;53.928;18.522;2023-05-02T02:01:49;11.10;94.10
22321;DHT22;11328;53.928;18.522;2023-05-02T02:04:18;11.20;93.90
22321;DHT22;11328;53.928;18.522;2023-05-02T02:06:52;11.20;94.00
22321;DHT22;11328;53.928;18.522;2023-05-02T02:09:28;11.20;94.10
22321;DHT22;11328;53.928;18.522;2023-05-02T02:14:41;11.20;94.40
22321;DHT22;11328;53.928;18.522;2023-05-02T02:17:15;11.20;94.50
22321;DHT22;11328;53.928;18.522;2023-05-02T02:19:53;11.10;94.60
22321;DHT22;11328;53.928;18.522;2023-05-02T02:22:23;11.10;94.60
22321;DHT22;11328;53.928;18.522;2023-05-02T02:24:53;11.00;94.80
22321;DHT22;11328;53.928;18.522;2023-05-02T02:27:21;11.00;94.80
22321;DHT22;11328;53.928;18.522;2023-05-02T02:29:48;11.00;95.00
22321;DHT22;11328;53.928;18.522;2023-05-02T02:32:15;11.00;95.00
22321;DHT22;11328;53.928;18.522;2023-05-02T02:34:42;11.00;95.20
22321;DHT22;11328;53.928;18.522;2023-05-02T02:37:19;11.00;95.30
22321;DHT22;11328;53.928;18.522;2023-05-02T02:39:54;11.10;95.30
22321;DHT22;11328;53.928;18.522;2023-05-02T02:52:01;11.20;95.20
22321;DHT22;11328;53.928;18.522;2023-05-02T02:57:37;11.30;95.30
22321;DHT22;11328;53.928;18.522;2023-05-02T03:00:21;11.30;95.10
22321;DHT22;11328;53.928;18.522;2023-05-02T03:02:53;11.30;95.00
22321;DHT22;11328;53.928;18.522;2023-05-02T03:05:22;11.30;95.10
22321;DHT22;11328;53.928;18.522;2023-05-02T03:07:50;11.30;95.30
22321;DHT22;11328;53.928;18.522;2023-05-02T03:10:17;11.30;95.50
22321;DHT22;11328;53.928;18.522;2023-05-02T03:12:44;11.20;95.30
22321;DHT22;11328;53.928;18.522;2023-05-02T03:18:23;11.20;95.30
22321;DHT22;11328;53.928;18.522;2023-05-02T03:20:50;11.30;95.70
22321;DHT22;11328;53.928;18.522;2023-05-02T03:23:17;11.30;95.60
22321;DHT22;11328;53.928;18.522;2023-05-02T03:25:44;11.30;95.90
22321;DHT22;11328;53.928;18.522;2023-05-02T03:28:11;11.30;95.80
22321;DHT22;11328;53.928;18.522;2023-05-02T03:30:38;11.30;95.80
22321;DHT22;11328;53.928;18.522;2023-05-02T03:33:06;11.30;95.90
22321;DHT22;11328;53.928;18.522;2023-05-02T03:35:34;11.30;96.00
22321;DHT22;11328;53.928;18.522;2023-05-02T03:38:01;11.30;96.20
22321;DHT22;11328;53.928;18.522;2023-05-02T03:40:28;11.30;96.40
22321;DHT22;11328;53.928;18.522;2023-05-02T03:42:55;11.20;96.60
22321;DHT22;11328;53.928;18.522;2023-05-02T03:45:22;11.10;96.60
22321;DHT22;11328;53.928;18.522;2023-05-02T03:47:48;11.00;96.80
22321;DHT22;11328;53.928;18.522;2023-05-02T03:50:15;10.90;97.50
22321;DHT22;11328;53.928;18.522;2023-05-02T03:52:43;10.70;97.80
22321;DHT22;11328;53.928;18.522;2023-05-02T03:55:10;10.60;98.20
22321;DHT22;11328;53.928;18.522;2023-05-02T03:57:37;10.40;98.30
22321;DHT22;11328;53.928;18.522;2023-05-02T04:00:05;10.40;98.20
22321;DHT22;11328;53.928;18.522;2023-05-02T04:02:32;10.30;98.20
22321;DHT22;11328;53.928;18.522;2023-05-02T04:04:59;10.30;98.30
22321;DHT22;11328;53.928;18.522;2023-05-02T04:07:26;10.30;98.30
22321;DHT22;11328;53.928;18.522;2023-05-02T04:09:54;10.40;98.30
22321;DHT22;11328;53.928;18.522;2023-05-02T04:12:21;10.40;98.30
22321;DHT22;11328;53.928;18.522;2023-05-02T04:14:47;10.40;98.10
22321;DHT22;11328;53.928;18.522;2023-05-02T04:17:14;10.40;98.10
22321;DHT22;11328;53.928;18.522;2023-05-02T04:19:41;10.40;98.10
22321;DHT22;11328;53.928;18.522;2023-05-02T04:22:08;10.50;98.30
22321;DHT22;11328;53.928;18.522;2023-05-02T04:24:35;10.60;97.80
22321;DHT22;11328;53.928;18.522;2023-05-02T04:27:02;10.60;97.70
22321;DHT22;11328;53.928;18.522;2023-05-02T04:29:29;10.70;98.00
22321;DHT22;11328;53.928;18.522;2023-05-02T04:31:56;10.80;98.20
22321;DHT22;11328;53.928;18.522;2023-05-02T04:34:23;10.80;98.10
22321;DHT22;11328;53.928;18.522;2023-05-02T04:36:50;10.90;98.40
22321;DHT22;11328;53.928;18.522;2023-05-02T04:39:17;10.90;98.90
22321;DHT22;11328;53.928;18.522;2023-05-02T04:41:44;10.90;98.80
22321;DHT22;11328;53.928;18.522;2023-05-02T04:44:11;10.80;98.90
22321;DHT22;11328;53.928;18.522;2023-05-02T04:46:38;10.80;98.80
22321;DHT22;11328;53.928;18.522;2023-05-02T04:49:05;10.70;98.80
22321;DHT22;11328;53.928;18.522;2023-05-02T04:51:32;10.70;99.20
22321;DHT22;11328;53.928;18.522;2023-05-02T04:54:00;10.70;99.10
22321;DHT22;11328;53.928;18.522;2023-05-02T04:56:27;10.70;99.30
22321;DHT22;11328;53.928;18.522;2023-05-02T04:58:53;10.70;99.50
22321;DHT22;11328;53.928;18.522;2023-05-02T05:01:20;10.80;99.90
22321;DHT22;11328;53.928;18.522;2023-05-02T05:03:49;10.80;99.90
22321;DHT22;11328;53.928;18.522;2023-05-02T05:06:16;10.90;99.90
22321;DHT22;11328;53.928;18.522;2023-05-02T05:08:44;11.00;99.90
22321;DHT22;11328;53.928;18.522;2023-05-02T05:11:12;10.90;99.90
22321;DHT22;11328;53.928;18.522;2023-05-02T05:13:39;11.00;99.90
22321;DHT22;11328;53.928;18.522;2023-05-02T05:16:06;11.10;99.90
22321;DHT22;11328;53.928;18.522;2023-05-02T05:18:33;11.20;99.90
22321;DHT22;11328;53.928;18.522;2023-05-02T05:21:07;11.20;99.90
22321;DHT22;11328;53.928;18.522;2023-05-02T05:23:35;11.30;99.90
22321;DHT22;11328;53.928;18.522;2023-05-02T05:26:10;11.40;99.90
22321;DHT22;11328;53.928;18.522;2023-05-02T05:28:37;11.50;99.90
22321;DHT22;11328;53.928;18.522;2023-05-02T05:31:05;11.40;99.90
22321;DHT22;11328;53.928;18.522;2023-05-02T05:33:37;11.40;99.90
22321;DHT22;11328;53.928;18.522;2023-05-02T05:36:09;11.60;99.90
22321;DHT22;11328;53.928;18.522;2023-05-02T05:38:42;11.60;99.90
22321;DHT22;11328;53.928;18.522;2023-05-02T05:41:10;11.70;99.90
22321;DHT22;11328;53.928;18.522;2023-05-02T05:43:37;11.80;99.90
22321;DHT22;11328;53.928;18.522;2023-05-02T05:46:04;11.90;99.90
22321;DHT22;11328;53.928;18.522;2023-05-02T05:48:31;12.00;99.90
22321;DHT22;11328;53.928;18.522;2023-05-02T05:51:05;12.00;99.90
22321;DHT22;11328;53.928;18.522;2023-05-02T05:53:33;12.00;99.90
22321;DHT22;11328;53.928;18.522;2023-05-02T05:56:11;12.00;99.80
22321;DHT22;11328;53.928;18.522;2023-05-02T05:58:39;12.00;99.60
22321;DHT22;11328;53.928;18.522;2023-05-02T06:01:08;12.00;99.60
22321;DHT22;11328;53.928;18.522;2023-05-02T06:03:35;12.00;99.60
22321;DHT22;11328;53.928;18.522;2023-05-02T06:06:02;12.00;99.70
22321;DHT22;11328;53.928;18.522;2023-05-02T06:08:30;12.10;99.90
22321;DHT22;11328;53.928;18.522;2023-05-02T06:10:57;12.20;99.90
22321;DHT22;11328;53.928;18.522;2023-05-02T06:13:24;12.30;99.90
22321;DHT22;11328;53.928;18.522;2023-05-02T06:15:51;12.40;99.90
22321;DHT22;11328;53.928;18.522;2023-05-02T06:18:18;12.50;99.90
22321;DHT22;11328;53.928;18.522;2023-05-02T06:20:45;12.50;99.90
22321;DHT22;11328;53.928;18.522;2023-05-02T06:23:12;12.50;99.90
22321;DHT22;11328;53.928;18.522;2023-05-02T06:25:39;12.60;99.90
22321;DHT22;11328;53.928;18.522;2023-05-02T06:28:06;12.60;99.90
22321;DHT22;11328;53.928;18.522;2023-05-02T06:30:33;12.50;99.90
22321;DHT22;11328;53.928;18.522;2023-05-02T06:33:01;12.50;99.90
22321;DHT22;11328;53.928;18.522;2023-05-02T06:35:29;12.50;99.90
22321;DHT22;11328;53.928;18.522;2023-05-02T06:37:56;12.50;99.70
22321;DHT22;11328;53.928;18.522;2023-05-02T06:40:23;12.50;99.90
22321;DHT22;11328;53.928;18.522;2023-05-02T06:42:50;12.70;99.90
22321;DHT22;11328;53.928;18.522;2023-05-02T06:45:17;12.60;99.90
22321;DHT22;11328;53.928;18.522;2023-05-02T06:47:45;12.60;99.90
22321;DHT22;11328;53.928;18.522;2023-05-02T06:50:12;12.70;99.90
22321;DHT22;11328;53.928;18.522;2023-05-02T06:52:39;12.70;99.90
22321;DHT22;11328;53.928;18.522;2023-05-02T06:55:06;12.80;99.90
22321;DHT22;11328;53.928;18.522;2023-05-02T06:57:33;12.80;99.90
22321;DHT22;11328;53.928;18.522;2023-05-02T07:00:00;12.80;99.90
22321;DHT22;11328;53.928;18.522;2023-05-02T07:02:28;12.90;99.90
22321;DHT22;11328;53.928;18.522;2023-05-02T07:04:55;12.90;99.70
22321;DHT22;11328;53.928;18.522;2023-05-02T07:07:22;12.90;99.70
22321;DHT22;11328;53.928;18.522;2023-05-02T07:09:49;12.80;99.40
22321;DHT22;11328;53.928;18.522;2023-05-02T07:12:15;12.80;99.50
22321;DHT22;11328;53.928;18.522;2023-05-02T07:14:43;12.80;99.70
22321;DHT22;11328;53.928;18.522;2023-05-02T07:17:13;12.80;99.70
22321;DHT22;11328;53.928;18.522;2023-05-02T07:19:42;12.90;99.90
22321;DHT22;11328;53.928;18.522;2023-05-02T07:22:24;12.90;99.90
22321;DHT22;11328;53.928;18.522;2023-05-02T07:25:00;12.90;99.90
22321;DHT22;11328;53.928;18.522;2023-05-02T07:27:28;13.00;99.90
22321;DHT22;11328;53.928;18.522;2023-05-02T07:29:56;13.10;99.90
22321;DHT22;11328;53.928;18.522;2023-05-02T07:32:23;13.20;99.90
22321;DHT22;11328;53.928;18.522;2023-05-02T07:34:53;13.20;99.90
22321;DHT22;11328;53.928;18.522;2023-05-02T07:37:22;13.30;99.90
22321;DHT22;11328;53.928;18.522;2023-05-02T07:39:49;13.30;99.90
22321;DHT22;11328;53.928;18.522;2023-05-02T07:42:16;13.30;99.80
22321;DHT22;11328;53.928;18.522;2023-05-02T07:44:43;13.40;99.90
22321;DHT22;11328;53.928;18.522;2023-05-02T07:47:10;13.40;99.90
22321;DHT22;11328;53.928;18.522;2023-05-02T07:49:37;13.50;99.90
22321;DHT22;11328;53.928;18.522;2023-05-02T07:52:06;13.60;99.90
22321;DHT22;11328;53.928;18.522;2023-05-02T07:54:33;13.60;99.90
22321;DHT22;11328;53.928;18.522;2023-05-02T07:57:02;13.70;99.50
22321;DHT22;11328;53.928;18.522;2023-05-02T07:59:30;13.60;99.80
22321;DHT22;11328;53.928;18.522;2023-05-02T08:01:57;13.60;99.90
22321;DHT22;11328;53.928;18.522;2023-05-02T08:04:25;13.50;99.80
22321;DHT22;11328;53.928;18.522;2023-05-02T08:06:53;13.50;99.80
22321;DHT22;11328;53.928;18.522;2023-05-02T08:09:21;13.70;99.90
22321;DHT22;11328;53.928;18.522;2023-05-02T08:11:48;13.80;99.90
22321;DHT22;11328;53.928;18.522;2023-05-02T08:14:16;13.80;99.90
22321;DHT22;11328;53.928;18.522;2023-05-02T08:16:43;13.90;99.90
22321;DHT22;11328;53.928;18.522;2023-05-02T08:19:12;13.90;99.70
22321;DHT22;11328;53.928;18.522;2023-05-02T08:21:39;14.00;99.90
22321;DHT22;11328;53.928;18.522;2023-05-02T08:24:06;14.20;99.90
22321;DHT22;11328;53.928;18.522;2023-05-02T08:26:33;14.40;99.90
22321;DHT22;11328;53.928;18.522;2023-05-02T08:29:01;14.80;99.80
22321;DHT22;11328;53.928;18.522;2023-05-02T08:31:30;14.90;99.10
22321;DHT22;11328;53.928;18.522;2023-05-02T08:33:57;15.10;99.10
22321;DHT22;11328;53.928;18.522;2023-05-02T08:36:24;15.50;98.80
22321;DHT22;11328;53.928;18.522;2023-05-02T08:38:54;15.80;97.90
22321;DHT22;11328;53.928;18.522;2023-05-02T08:41:21;16.10;98.20
22321;DHT22;11328;53.928;18.522;2023-05-02T08:43:49;16.60;98.30
22321;DHT22;11328;53.928;18.522;2023-05-02T08:46:17;16.90;96.20
22321;DHT22;11328;53.928;18.522;2023-05-02T08:48:45;17.20;97.60
22321;DHT22;11328;53.928;18.522;2023-05-02T08:51:16;17.40;96.50
22321;DHT22;11328;53.928;18.522;2023-05-02T08:53:45;17.60;96.40
22321;DHT22;11328;53.928;18.522;2023-05-02T08:56:14;17.80;95.70
22321;DHT22;11328;53.928;18.522;2023-05-02T08:58:41;18.20;96.30
22321;DHT22;11328;53.928;18.522;2023-05-02T09:01:14;18.30;95.90
22321;DHT22;11328;53.928;18.522;2023-05-02T09:03:44;18.40;95.50
22321;DHT22;11328;53.928;18.522;2023-05-02T09:06:20;18.50;94.90
22321;DHT22;11328;53.928;18.522;2023-05-02T09:08:50;18.60;95.30
22321;DHT22;11328;53.928;18.522;2023-05-02T09:11:20;18.70;94.90
22321;DHT22;11328;53.928;18.522;2023-05-02T09:13:49;18.80;94.60
22321;DHT22;11328;53.928;18.522;2023-05-02T09:16:25;18.90;94.40
22321;DHT22;11328;53.928;18.522;2023-05-02T09:18:57;18.90;93.90
22321;DHT22;11328;53.928;18.522;2023-05-02T09:21:33;19.20;94.30
22321;DHT22;11328;53.928;18.522;2023-05-02T09:24:19;19.40;93.30
22321;DHT22;11328;53.928;18.522;2023-05-02T09:26:59;19.70;93.20
22321;DHT22;11328;53.928;18.522;2023-05-02T09:29:33;19.90;92.20
22321;DHT22;11328;53.928;18.522;2023-05-02T09:32:05;20.20;92.90
22321;DHT22;11328;53.928;18.522;2023-05-02T09:34:33;20.10;92.10
22321;DHT22;11328;53.928;18.522;2023-05-02T09:37:00;20.20;91.70
22321;DHT22;11328;53.928;18.522;2023-05-02T09:39:29;19.90;91.60
22321;DHT22;11328;53.928;18.522;2023-05-02T09:41:57;19.90;92.10
22321;DHT22;11328;53.928;18.522;2023-05-02T09:44:27;19.90;91.70
22321;DHT22;11328;53.928;18.522;2023-05-02T09:47:03;19.80;91.20
22321;DHT22;11328;53.928;18.522;2023-05-02T09:49:58;19.80;91.40
22321;DHT22;11328;53.928;18.522;2023-05-02T09:52:27;19.50;90.20
22321;DHT22;11328;53.928;18.522;2023-05-02T09:54:54;19.60;90.30
22321;DHT22;11328;53.928;18.522;2023-05-02T09:57:38;19.90;91.40
22321;DHT22;11328;53.928;18.522;2023-05-02T10:00:08;19.60;87.90
22321;DHT22;11328;53.928;18.522;2023-05-02T10:02:36;19.30;86.90
22321;DHT22;11328;53.928;18.522;2023-05-02T10:05:07;19.20;86.10
22321;DHT22;11328;53.928;18.522;2023-05-02T10:07:37;19.20;87.20
22321;DHT22;11328;53.928;18.522;2023-05-02T10:10:06;19.40;87.60
22321;DHT22;11328;53.928;18.522;2023-05-02T10:12:37;19.10;82.50
22321;DHT22;11328;53.928;18.522;2023-05-02T10:15:09;19.30;82.90
22321;DHT22;11328;53.928;18.522;2023-05-02T10:17:48;18.90;80.90
22321;DHT22;11328;53.928;18.522;2023-05-02T10:20:24;18.90;81.90
22321;DHT22;11328;53.928;18.522;2023-05-02T10:22:59;19.00;81.30
22321;DHT22;11328;53.928;18.522;2023-05-02T10:25:28;19.30;81.10
22321;DHT22;11328;53.928;18.522;2023-05-02T10:27:56;19.70;82.20
22321;DHT22;11328;53.928;18.522;2023-05-02T10:30:29;20.30;83.20
22321;DHT22;11328;53.928;18.522;2023-05-02T10:32:58;20.30;79.80
22321;DHT22;11328;53.928;18.522;2023-05-02T10:35:26;20.30;77.60
22321;DHT22;11328;53.928;18.522;2023-05-02T10:37:53;20.60;81.80
22321;DHT22;11328;53.928;18.522;2023-05-02T10:40:22;20.30;80.00
22321;DHT22;11328;53.928;18.522;2023-05-02T10:42:49;20.00;81.80
22321;DHT22;11328;53.928;18.522;2023-05-02T10:45:36;19.80;83.10
22321;DHT22;11328;53.928;18.522;2023-05-02T10:48:23;19.90;83.90
22321;DHT22;11328;53.928;18.522;2023-05-02T10:50:57;19.90;83.50
22321;DHT22;11328;53.928;18.522;2023-05-02T10:53:31;19.50;84.70
22321;DHT22;11328;53.928;18.522;2023-05-02T10:56:21;19.30;86.30
22321;DHT22;11328;53.928;18.522;2023-05-02T10:58:52;19.10;86.60
22321;DHT22;11328;53.928;18.522;2023-05-02T11:01:39;19.00;88.60
22321;DHT22;11328;53.928;18.522;2023-05-02T11:04:10;19.20;90.60
22321;DHT22;11328;53.928;18.522;2023-05-02T11:11:50;18.70;91.30
22321;DHT22;11328;53.928;18.522;2023-05-02T11:19:28;18.50;92.70
22321;DHT22;11328;53.928;18.522;2023-05-02T11:24:48;18.60;94.10
22321;DHT22;11328;53.928;18.522;2023-05-02T11:30:05;19.10;94.10
22321;DHT22;11328;53.928;18.522;2023-05-02T11:37:56;18.10;94.40
22321;DHT22;11328;53.928;18.522;2023-05-02T11:40:26;18.00;94.70
22321;DHT22;11328;53.928;18.522;2023-05-02T11:42:57;18.10;94.90
22321;DHT22;11328;53.928;18.522;2023-05-02T11:45:35;18.10;94.80
22321;DHT22;11328;53.928;18.522;2023-05-02T11:48:06;17.60;95.00
22321;DHT22;11328;53.928;18.522;2023-05-02T11:50:41;17.50;95.40
22321;DHT22;11328;53.928;18.522;2023-05-02T11:53:17;17.40;95.70
22321;DHT22;11328;53.928;18.522;2023-05-02T11:55:53;17.40;95.90
22321;DHT22;11328;53.928;18.522;2023-05-02T11:58:31;17.20;95.80
22321;DHT22;11328;53.928;18.522;2023-05-02T12:01:11;17.20;96.00
22321;DHT22;11328;53.928;18.522;2023-05-02T12:03:42;17.10;96.00
22321;DHT22;11328;53.928;18.522;2023-05-02T12:08:43;17.00;96.40
22321;DHT22;11328;53.928;18.522;2023-05-02T12:11:15;17.00;96.70
22321;DHT22;11328;53.928;18.522;2023-05-02T12:13:47;17.10;96.80
22321;DHT22;11328;53.928;18.522;2023-05-02T12:16:16;17.10;97.20
22321;DHT22;11328;53.928;18.522;2023-05-02T12:18:44;17.10;97.40
22321;DHT22;11328;53.928;18.522;2023-05-02T12:21:13;16.90;97.40
22321;DHT22;11328;53.928;18.522;2023-05-02T12:23:41;17.00;98.00
22321;DHT22;11328;53.928;18.522;2023-05-02T12:26:16;17.10;98.00
22321;DHT22;11328;53.928;18.522;2023-05-02T12:28:50;17.30;98.20
22321;DHT22;11328;53.928;18.522;2023-05-02T12:31:18;17.40;98.20
22321;DHT22;11328;53.928;18.522;2023-05-02T12:33:46;17.30;97.80
22321;DHT22;11328;53.928;18.522;2023-05-02T12:36:14;17.40;98.70
22321;DHT22;11328;53.928;18.522;2023-05-02T12:38:56;17.50;98.60
22321;DHT22;11328;53.928;18.522;2023-05-02T12:43:59;17.30;98.60
22321;DHT22;11328;53.928;18.522;2023-05-02T12:46:27;16.90;99.10
22321;DHT22;11328;53.928;18.522;2023-05-02T12:49:08;16.70;98.90
22321;DHT22;11328;53.928;18.522;2023-05-02T12:51:38;16.50;99.10
22321;DHT22;11328;53.928;18.522;2023-05-02T12:54:06;16.40;99.20
22321;DHT22;11328;53.928;18.522;2023-05-02T12:56:40;16.40;99.60
22321;DHT22;11328;53.928;18.522;2023-05-02T12:59:26;16.20;99.30
22321;DHT22;11328;53.928;18.522;2023-05-02T13:01:55;16.20;99.60
22321;DHT22;11328;53.928;18.522;2023-05-02T13:04:39;16.20;99.90
22321;DHT22;11328;53.928;18.522;2023-05-02T13:07:07;16.30;99.80
22321;DHT22;11328;53.928;18.522;2023-05-02T13:09:34;16.20;99.70
22321;DHT22;11328;53.928;18.522;2023-05-02T13:12:01;16.10;99.90
22321;DHT22;11328;53.928;18.522;2023-05-02T13:14:30;16.20;99.90
22321;DHT22;11328;53.928;18.522;2023-05-02T13:16:57;16.30;99.90
22321;DHT22;11328;53.928;18.522;2023-05-02T13:19:24;16.50;99.90
22321;DHT22;11328;53.928;18.522;2023-05-02T13:21:54;16.40;99.90
22321;DHT22;11328;53.928;18.522;2023-05-02T13:24:22;16.20;99.80
22321;DHT22;11328;53.928;18.522;2023-05-02T13:26:49;16.20;99.90
22321;DHT22;11328;53.928;18.522;2023-05-02T13:29:16;16.40;99.90
22321;DHT22;11328;53.928;18.522;2023-05-02T13:31:43;16.50;99.50
22321;DHT22;11328;53.928;18.522;2023-05-02T13:34:10;16.30;99.30
22321;DHT22;11328;53.928;18.522;2023-05-02T13:36:37;16.20;99.20
22321;DHT22;11328;53.928;18.522;2023-05-02T13:39:11;16.00;99.90
22321;DHT22;11328;53.928;18.522;2023-05-02T13:41:40;15.80;99.50
22321;DHT22;11328;53.928;18.522;2023-05-02T13:44:07;16.20;99.90
22321;DHT22;11328;53.928;18.522;2023-05-02T13:46:35;16.30;99.90
22321;DHT22;11328;53.928;18.522;2023-05-02T13:49:03;16.20;99.90
22321;DHT22;11328;53.928;18.522;2023-05-02T13:51:34;16.10;98.50
22321;DHT22;11328;53.928;18.522;2023-05-02T13:54:01;16.00;98.20
22321;DHT22;11328;53.928;18.522;2023-05-02T13:56:28;15.90;98.60
22321;DHT22;11328;53.928;18.522;2023-05-02T13:58:55;16.00;98.60
22321;DHT22;11328;53.928;18.522;2023-05-02T14:01:22;16.10;98.80
22321;DHT22;11328;53.928;18.522;2023-05-02T14:03:52;16.00;98.30
22321;DHT22;11328;53.928;18.522;2023-05-02T14:06:19;15.90;97.80
22321;DHT22;11328;53.928;18.522;2023-05-02T14:08:46;15.60;97.60
22321;DHT22;11328;53.928;18.522;2023-05-02T14:11:13;15.70;98.10
22321;DHT22;11328;53.928;18.522;2023-05-02T14:13:40;15.80;98.30
22321;DHT22;11328;53.928;18.522;2023-05-02T14:16:07;15.80;98.30
22321;DHT22;11328;53.928;18.522;2023-05-02T14:18:34;15.90;98.30
22321;DHT22;11328;53.928;18.522;2023-05-02T14:21:01;15.60;98.30
22321;DHT22;11328;53.928;18.522;2023-05-02T14:23:30;15.70;97.80
22321;DHT22;11328;53.928;18.522;2023-05-02T14:25:57;15.60;97.60
22321;DHT22;11328;53.928;18.522;2023-05-02T14:28:24;15.50;97.70
22321;DHT22;11328;53.928;18.522;2023-05-02T14:30:52;15.60;97.40
22321;DHT22;11328;53.928;18.522;2023-05-02T14:33:19;15.50;96.80
22321;DHT22;11328;53.928;18.522;2023-05-02T14:35:47;15.60;96.70
22321;DHT22;11328;53.928;18.522;2023-05-02T14:38:14;15.50;96.30
22321;DHT22;11328;53.928;18.522;2023-05-02T14:40:44;15.80;97.00
22321;DHT22;11328;53.928;18.522;2023-05-02T14:43:12;15.80;96.40
22321;DHT22;11328;53.928;18.522;2023-05-02T14:45:39;16.00;97.00
22321;DHT22;11328;53.928;18.522;2023-05-02T14:48:06;16.20;96.70
22321;DHT22;11328;53.928;18.522;2023-05-02T14:50:36;16.10;95.90
22321;DHT22;11328;53.928;18.522;2023-05-02T14:53:05;16.00;96.10
22321;DHT22;11328;53.928;18.522;2023-05-02T14:55:36;15.90;95.60
22321;DHT22;11328;53.928;18.522;2023-05-02T14:58:10;15.80;95.10
22321;DHT22;11328;53.928;18.522;2023-05-02T15:00:37;15.70;95.20
22321;DHT22;11328;53.928;18.522;2023-05-02T15:03:37;15.80;95.10
22321;DHT22;11328;53.928;18.522;2023-05-02T15:06:28;15.60;94.70
22321;DHT22;11328;53.928;18.522;2023-05-02T15:08:58;15.60;94.70
22321;DHT22;11328;53.928;18.522;2023-05-02T15:15:20;15.10;94.80
22321;DHT22;11328;53.928;18.522;2023-05-02T15:17:51;15.20;94.80
22321;DHT22;11328;53.928;18.522;2023-05-02T15:20:18;15.40;95.90
22321;DHT22;11328;53.928;18.522;2023-05-02T15:22:45;15.50;94.60
22321;DHT22;11328;53.928;18.522;2023-05-02T15:25:12;15.50;94.40
22321;DHT22;11328;53.928;18.522;2023-05-02T15:27:40;15.60;94.70
22321;DHT22;11328;53.928;18.522;2023-05-02T15:30:08;15.60;95.00
22321;DHT22;11328;53.928;18.522;2023-05-02T15:32:36;15.50;94.80
22321;DHT22;11328;53.928;18.522;2023-05-02T15:35:05;15.40;94.60
22321;DHT22;11328;53.928;18.522;2023-05-02T15:42:04;15.20;94.60
22321;DHT22;11328;53.928;18.522;2023-05-02T15:44:35;15.00;93.90
22321;DHT22;11328;53.928;18.522;2023-05-02T15:47:05;14.70;93.80
22321;DHT22;11328;53.928;18.522;2023-05-02T15:49:32;14.70;94.50
22321;DHT22;11328;53.928;18.522;2023-05-02T15:52:01;14.90;94.80
22321;DHT22;11328;53.928;18.522;2023-05-02T15:54:28;14.80;94.80
22321;DHT22;11328;53.928;18.522;2023-05-02T15:56:57;14.60;95.10
22321;DHT22;11328;53.928;18.522;2023-05-02T15:59:24;14.40;95.00
22321;DHT22;11328;53.928;18.522;2023-05-02T16:01:51;14.50;95.10
22321;DHT22;11328;53.928;18.522;2023-05-02T16:04:18;14.50;95.20
22321;DHT22;11328;53.928;18.522;2023-05-02T16:06:45;14.40;95.50
22321;DHT22;11328;53.928;18.522;2023-05-02T16:09:12;14.50;95.70
22321;DHT22;11328;53.928;18.522;2023-05-02T16:11:39;14.40;95.00
22321;DHT22;11328;53.928;18.522;2023-05-02T16:14:06;14.50;94.70
22321;DHT22;11328;53.928;18.522;2023-05-02T16:16:33;14.50;94.80
22321;DHT22;11328;53.928;18.522;2023-05-02T16:22:59;14.30;95.10
22321;DHT22;11328;53.928;18.522;2023-05-02T16:25:26;14.20;95.40
22321;DHT22;11328;53.928;18.522;2023-05-02T16:31:04;14.30;95.20
22321;DHT22;11328;53.928;18.522;2023-05-02T16:33:32;14.20;95.40
22321;DHT22;11328;53.928;18.522;2023-05-02T16:39:51;13.80;95.00
22321;DHT22;11328;53.928;18.522;2023-05-02T16:42:18;13.70;94.60